createdAt,value
2022-10-18T00:00:26.222Z,63.74
2022-10-18T00:02:53.116Z,63.64
2022-10-18T00:05:19.984Z,63.47
2022-10-18T00:07:46.842Z,63.22
2022-10-18T00:10:13.866Z,63.57
2022-10-18T00:12:40.771Z,63.63
2022-10-18T00:15:08.939Z,63.82
2022-10-18T00:17:37.111Z,63.82
2022-10-18T00:20:06.257Z,63.81
2022-10-18T00:22:36.410Z,63.68
2022-10-18T00:25:03.816Z,63.94
2022-10-18T00:27:31.394Z,63.80
2022-10-18T00:29:58.475Z,63.94
2022-10-18T00:32:26.240Z,63.66
2022-10-18T00:34:53.124Z,63.84
2022-10-18T00:37:19.997Z,63.86
2022-10-18T00:39:46.922Z,64.00
2022-10-18T00:42:18.978Z,64.20
2022-10-18T00:44:45.762Z,63.81
2022-10-18T00:47:16.304Z,63.81
2022-10-18T00:49:50.370Z,63.69
2022-10-18T00:52:43.876Z,63.58
2022-10-18T00:55:11.297Z,63.66
2022-10-18T00:57:40.748Z,63.73
2022-10-18T01:00:09.997Z,63.73
2022-10-18T01:02:38.642Z,63.67
2022-10-18T01:05:06.614Z,63.71
2022-10-18T01:07:55.400Z,63.80
2022-10-18T01:11:07.424Z,63.81
2022-10-18T01:14:05.950Z,63.88
2022-10-18T01:16:52.260Z,63.68
2022-10-18T01:20:11.905Z,63.73
2022-10-18T01:22:45.801Z,63.55
2022-10-18T01:25:50.678Z,63.75
2022-10-18T01:28:38.923Z,63.71
2022-10-18T01:31:35.552Z,63.87
2022-10-18T01:34:09.532Z,63.71
2022-10-18T01:36:40.466Z,63.48
2022-10-18T01:39:14.092Z,63.85
2022-10-18T01:41:44.551Z,63.69
2022-10-18T01:44:16.906Z,63.65
2022-10-18T01:46:46.555Z,63.63
2022-10-18T01:49:13.425Z,63.70
2022-10-18T01:51:40.304Z,63.64
2022-10-18T01:54:07.173Z,63.70
2022-10-18T01:56:56.525Z,63.86
2022-10-18T01:59:58.939Z,64.15
2022-10-18T02:02:50.150Z,64.01
2022-10-18T02:05:40.236Z,63.91
2022-10-18T02:08:29.584Z,63.88
2022-10-18T02:11:08.173Z,64.36
2022-10-18T02:13:50.765Z,64.18
2022-10-18T02:16:24.440Z,64.13
2022-10-18T02:18:58.968Z,64.01
2022-10-18T02:21:28.298Z,64.30
2022-10-18T02:23:57.334Z,64.01
2022-10-18T02:26:24.770Z,63.99
2022-10-18T02:28:52.212Z,63.51
2022-10-18T02:31:43.385Z,63.76
2022-10-18T02:34:27.816Z,63.68
2022-10-18T02:37:00.554Z,64.08
2022-10-18T02:39:31.131Z,64.01
2022-10-18T02:41:58.798Z,64.06
2022-10-18T02:44:26.139Z,63.95
2022-10-18T02:46:53.179Z,64.12
2022-10-18T02:49:20.084Z,63.95
2022-10-18T02:51:46.949Z,63.84
2022-10-18T02:54:13.833Z,64.07
2022-10-18T02:56:40.692Z,63.84
2022-10-18T02:59:08.172Z,63.86
2022-10-18T03:01:36.261Z,63.97
2022-10-18T03:04:04.563Z,64.06
2022-10-18T03:06:32.245Z,63.75
2022-10-18T03:08:59.474Z,63.80
2022-10-18T03:11:26.332Z,63.95
2022-10-18T03:13:53.216Z,63.90
2022-10-18T03:16:20.171Z,64.04
2022-10-18T03:18:47.039Z,64.00
2022-10-18T03:21:13.994Z,64.16
2022-10-18T03:23:42.215Z,64.44
2022-10-18T03:26:09.721Z,64.42
2022-10-18T03:28:36.661Z,64.19
2022-10-18T03:31:05.075Z,64.43
2022-10-18T03:33:33.594Z,64.28
2022-10-18T03:36:00.515Z,64.57
2022-10-18T03:38:27.520Z,64.47
2022-10-18T03:40:54.514Z,64.24
2022-10-18T03:43:21.712Z,64.65
2022-10-18T03:45:48.611Z,64.50
2022-10-18T03:48:15.475Z,64.38
2022-10-18T03:50:43.472Z,64.46
2022-10-18T03:53:10.419Z,64.24
2022-10-18T03:55:37.775Z,64.48
2022-10-18T03:58:04.788Z,64.48
2022-10-18T04:00:31.756Z,64.39
2022-10-18T04:02:58.668Z,64.28
2022-10-18T04:05:27.985Z,64.28
2022-10-18T04:07:55.017Z,63.93
2022-10-18T04:10:22.316Z,63.67
2022-10-18T04:12:49.225Z,63.79
2022-10-18T04:15:16.151Z,63.60
2022-10-18T04:17:43.075Z,63.83
2022-10-18T04:20:10.380Z,63.61
2022-10-18T04:22:37.282Z,63.30
2022-10-18T04:25:04.914Z,63.52
2022-10-18T04:27:31.986Z,63.41
2022-10-18T04:29:59.235Z,63.50
2022-10-18T04:32:28.655Z,63.62
2022-10-18T04:34:55.506Z,63.75
2022-10-18T04:37:22.418Z,63.52
2022-10-18T04:39:52.647Z,63.72
2022-10-18T04:42:22.060Z,63.76
2022-10-18T04:44:49.179Z,63.68
2022-10-18T04:47:16.871Z,63.91
2022-10-18T04:49:44.130Z,63.78
2022-10-18T04:52:11.572Z,63.57
2022-10-18T04:54:38.683Z,63.86
2022-10-18T04:57:05.570Z,63.86
2022-10-18T04:59:32.402Z,63.33
2022-10-18T05:01:59.385Z,63.57
2022-10-18T05:04:26.320Z,63.24
2022-10-18T05:06:53.193Z,63.39
2022-10-18T05:09:22.240Z,63.61
2022-10-18T05:11:49.106Z,63.31
2022-10-18T05:14:16.147Z,63.18
2022-10-18T05:16:43.027Z,63.74
2022-10-18T05:19:10.603Z,63.68
2022-10-18T05:21:37.458Z,63.49
2022-10-18T05:24:04.498Z,63.42
2022-10-18T05:26:31.370Z,63.45
2022-10-18T05:28:58.332Z,63.32
2022-10-18T05:31:25.271Z,63.75
2022-10-18T05:33:52.229Z,63.42
2022-10-18T05:36:19.113Z,63.58
2022-10-18T05:38:47.884Z,63.87
2022-10-18T05:41:15.399Z,63.85
2022-10-18T05:43:42.302Z,63.64
2022-10-18T05:46:15.109Z,63.79
2022-10-18T05:48:44.649Z,63.98
2022-10-18T05:51:11.770Z,63.64
2022-10-18T05:53:38.675Z,64.07
2022-10-18T05:56:07.123Z,64.18
2022-10-18T05:58:35.082Z,64.13
2022-10-18T06:01:03.036Z,64.17
2022-10-18T06:03:30.940Z,64.51
2022-10-18T06:06:07.488Z,64.35
2022-10-18T06:08:35.492Z,64.59
2022-10-18T06:11:28.601Z,64.32
2022-10-18T06:13:57.683Z,64.46
2022-10-18T06:16:31.253Z,64.09
2022-10-18T06:18:59.896Z,64.72
2022-10-18T06:21:27.107Z,64.27
2022-10-18T06:23:57.715Z,64.20
2022-10-18T06:26:25.728Z,63.86
2022-10-18T06:28:52.733Z,63.98
2022-10-18T06:31:21.221Z,64.27
2022-10-18T06:33:48.371Z,63.80
2022-10-18T06:36:18.308Z,64.01
2022-10-18T06:38:45.517Z,64.03
2022-10-18T06:41:12.417Z,64.62
2022-10-18T06:43:39.359Z,64.11
2022-10-18T06:46:08.104Z,64.33
2022-10-18T06:48:39.684Z,64.45
2022-10-18T06:51:08.297Z,64.93
2022-10-18T06:53:44.079Z,64.32
2022-10-18T06:56:15.723Z,64.22
2022-10-18T06:58:42.599Z,64.61
2022-10-18T07:01:16.419Z,64.55
2022-10-18T07:03:44.851Z,64.30
2022-10-18T07:06:14.022Z,64.51
2022-10-18T07:08:41.370Z,64.32
2022-10-18T07:11:14.810Z,64.33
2022-10-18T07:13:41.694Z,63.89
2022-10-18T07:16:14.211Z,63.87
2022-10-18T07:18:49.557Z,64.07
2022-10-18T07:21:21.313Z,64.00
2022-10-18T07:23:49.584Z,63.96
2022-10-18T07:26:25.466Z,63.94
2022-10-18T07:28:57.948Z,63.91
2022-10-18T07:31:25.504Z,63.42
2022-10-18T07:33:52.458Z,63.73
2022-10-18T07:36:21.296Z,63.70
2022-10-18T07:38:49.254Z,63.50
2022-10-18T07:41:16.229Z,63.43
2022-10-18T07:43:45.994Z,63.62
2022-10-18T07:46:14.445Z,63.82
2022-10-18T07:48:41.318Z,63.65
2022-10-18T07:51:08.849Z,63.97
2022-10-18T07:53:35.863Z,63.91
2022-10-18T07:56:09.520Z,64.09
2022-10-18T07:58:36.837Z,63.90
2022-10-18T08:01:06.525Z,64.33
2022-10-18T08:03:34.043Z,63.95
2022-10-18T08:06:01.338Z,63.74
2022-10-18T08:08:29.011Z,63.99
2022-10-18T08:10:56.205Z,64.22
2022-10-18T08:13:23.084Z,63.84
2022-10-18T08:15:49.973Z,64.16
2022-10-18T08:18:16.849Z,64.17
2022-10-18T08:20:45.403Z,63.76
2022-10-18T08:23:12.264Z,63.74
2022-10-18T08:25:39.167Z,64.03
2022-10-18T08:28:07.052Z,63.86
2022-10-18T08:30:35.432Z,63.62
2022-10-18T08:33:03.428Z,63.49
2022-10-18T08:35:31.750Z,63.69
2022-10-18T08:37:59.406Z,63.95
2022-10-18T08:40:27.610Z,63.59
2022-10-18T08:43:24.250Z,63.74
2022-10-18T08:45:53.415Z,63.69
2022-10-18T08:48:43.991Z,63.72
2022-10-18T08:51:33.518Z,63.24
2022-10-18T08:54:12.796Z,63.60
2022-10-18T08:56:43.684Z,63.39
2022-10-18T08:59:12.191Z,63.30
2022-10-18T09:02:15.495Z,63.46
2022-10-18T09:05:19.062Z,63.39
2022-10-18T09:08:17.097Z,63.31
2022-10-18T09:11:38.773Z,62.90
2022-10-18T09:14:37.272Z,63.53
2022-10-18T09:18:10.383Z,63.44
2022-10-18T09:21:00.416Z,63.39
2022-10-18T09:24:13.444Z,63.20
2022-10-18T09:26:49.944Z,63.35
2022-10-18T09:30:02.822Z,63.10
2022-10-18T09:32:58.523Z,63.57
2022-10-18T09:35:31.822Z,63.53
2022-10-18T09:38:05.978Z,63.53
2022-10-18T09:40:38.768Z,63.46
2022-10-18T09:43:20.655Z,63.39
2022-10-18T09:45:48.909Z,63.66
2022-10-18T09:48:29.625Z,63.18
2022-10-18T09:51:12.569Z,63.14
2022-10-18T09:54:17.736Z,62.74
2022-10-18T09:59:38.312Z,62.52
2022-10-18T10:02:06.373Z,62.95
2022-10-18T10:04:33.313Z,62.32
2022-10-18T10:07:02.101Z,62.06
2022-10-18T10:09:37.600Z,62.08
2022-10-18T10:12:04.671Z,61.92
2022-10-18T10:14:44.090Z,61.57
2022-10-18T10:17:29.660Z,61.46
2022-10-18T10:20:14.527Z,61.44
2022-10-18T10:22:42.838Z,61.12
2022-10-18T10:25:30.850Z,61.39
2022-10-18T10:28:16.967Z,61.21
2022-10-18T10:30:43.865Z,61.06
2022-10-18T10:33:38.377Z,60.68
2022-10-18T10:36:17.348Z,60.56
2022-10-18T10:38:44.382Z,60.50
2022-10-18T10:41:21.364Z,60.13
2022-10-18T10:43:49.118Z,60.31
2022-10-18T10:46:23.062Z,60.21
2022-10-18T10:49:08.454Z,59.77
2022-10-18T10:51:42.106Z,59.70
2022-10-18T10:54:21.402Z,59.67
2022-10-18T10:57:03.962Z,59.82
2022-10-18T10:59:53.539Z,59.35
2022-10-18T11:02:30.518Z,59.51
2022-10-18T11:05:17.086Z,59.05
2022-10-18T11:07:46.736Z,59.01
2022-10-18T11:10:21.484Z,58.58
2022-10-18T11:13:18.865Z,58.24
2022-10-18T11:15:50.741Z,58.43
2022-10-18T11:18:25.738Z,57.96
2022-10-18T11:21:07.866Z,57.77
2022-10-18T11:23:37.899Z,57.91
2022-10-18T11:26:28.719Z,57.64
2022-10-18T11:29:28.593Z,57.30
2022-10-18T11:32:27.796Z,57.03
2022-10-18T11:35:15.108Z,56.45
2022-10-18T11:38:22.789Z,56.19
2022-10-18T11:41:02.616Z,55.67
2022-10-18T11:44:02.720Z,55.48
2022-10-18T11:47:19.548Z,55.75
2022-10-18T11:50:08.728Z,56.08
2022-10-18T11:53:19.741Z,56.39
2022-10-18T11:56:33.434Z,56.12
2022-10-18T11:59:37.872Z,56.56
2022-10-18T12:03:05.036Z,56.78
2022-10-18T12:05:32.901Z,56.47
2022-10-18T12:08:09.915Z,56.63
2022-10-18T12:10:52.849Z,56.16
2022-10-18T12:13:49.288Z,55.07
2022-10-18T12:16:25.530Z,54.60
2022-10-18T12:19:08.771Z,54.81
2022-10-18T12:21:37.031Z,54.40
2022-10-18T12:24:12.491Z,54.59
2022-10-18T12:26:39.463Z,54.68
2022-10-18T12:29:35.604Z,54.71
2022-10-18T12:32:09.809Z,54.97
2022-10-18T12:34:43.876Z,55.23
2022-10-18T12:37:56.773Z,54.72
2022-10-18T12:40:33.916Z,54.85
2022-10-18T12:43:09.608Z,55.04
2022-10-18T12:45:56.183Z,55.08
2022-10-18T12:48:39.023Z,55.10
2022-10-18T12:51:22.011Z,55.00
2022-10-18T12:54:01.547Z,54.12
2022-10-18T12:56:28.273Z,54.27
2022-10-18T12:59:15.237Z,54.30
2022-10-18T13:01:50.975Z,54.06
2022-10-18T13:04:33.548Z,54.05
2022-10-18T13:07:07.814Z,54.20
2022-10-18T13:09:37.166Z,54.21
2022-10-18T13:12:10.061Z,52.84
2022-10-18T13:15:24.204Z,52.51
2022-10-18T13:18:14.850Z,50.65
2022-10-18T13:20:57.477Z,49.49
2022-10-18T13:24:06.286Z,49.90
2022-10-18T13:27:24.478Z,50.52
2022-10-18T13:30:26.091Z,50.75
2022-10-18T13:33:23.244Z,50.93
2022-10-18T13:35:57.376Z,51.53
2022-10-18T13:38:55.649Z,51.21
2022-10-18T13:41:42.209Z,51.72
2022-10-18T13:44:40.247Z,51.59
2022-10-18T13:47:07.070Z,50.54
2022-10-18T13:49:39.736Z,50.24
2022-10-18T13:52:22.834Z,50.17
2022-10-18T13:55:35.147Z,50.74
2022-10-18T13:58:17.594Z,50.78
2022-10-18T14:01:37.660Z,50.28
2022-10-18T14:05:11.157Z,51.05
2022-10-18T14:07:48.949Z,51.18
2022-10-18T14:11:03.064Z,51.40
2022-10-18T14:13:47.704Z,50.97
2022-10-18T14:16:40.188Z,50.98
2022-10-18T14:19:46.078Z,50.26
2022-10-18T14:22:49.974Z,50.19
2022-10-18T14:25:37.891Z,50.01
2022-10-18T14:28:12.240Z,50.01
2022-10-18T14:31:06.139Z,50.09
2022-10-18T14:33:43.485Z,50.75
2022-10-18T14:36:16.479Z,50.23
2022-10-18T14:38:54.975Z,50.10
2022-10-18T14:41:26.977Z,49.44
2022-10-18T14:44:14.716Z,49.44
2022-10-18T14:46:58.372Z,49.42
2022-10-18T14:49:25.259Z,49.47
2022-10-18T14:51:55.755Z,49.68
2022-10-18T14:54:33.689Z,50.14
2022-10-18T14:57:02.009Z,50.24
2022-10-18T14:59:33.715Z,50.16
2022-10-18T15:02:06.647Z,50.16
2022-10-18T15:04:33.567Z,49.78
2022-10-18T15:07:03.915Z,49.95
2022-10-18T15:09:34.663Z,50.20
2022-10-18T15:12:06.870Z,50.70
2022-10-18T15:14:35.631Z,50.93
2022-10-18T15:17:12.007Z,50.79
2022-10-18T15:19:39.517Z,51.00
2022-10-18T15:25:22.105Z,51.48
2022-10-18T15:27:57.922Z,51.52
2022-10-18T15:30:28.776Z,51.51
2022-10-18T15:33:10.338Z,52.30
2022-10-18T15:35:39.330Z,51.69
2022-10-18T15:38:21.338Z,52.40
2022-10-18T15:40:48.389Z,52.39
2022-10-18T15:43:24.411Z,52.71
2022-10-18T15:46:06.770Z,52.55
2022-10-18T15:48:40.654Z,52.43
2022-10-18T15:51:19.567Z,53.01
2022-10-18T15:53:54.502Z,52.65
2022-10-18T15:56:32.333Z,52.52
2022-10-18T15:59:04.057Z,52.65
2022-10-18T16:01:39.519Z,52.88
2022-10-18T16:04:24.431Z,53.23
2022-10-18T16:06:51.672Z,52.73
2022-10-18T16:09:21.580Z,53.17
2022-10-18T16:11:56.380Z,52.84
2022-10-18T16:14:24.849Z,52.85
2022-10-18T16:16:55.602Z,53.49
2022-10-18T16:19:22.891Z,52.99
2022-10-18T16:21:51.619Z,53.05
2022-10-18T16:24:19.958Z,53.60
2022-10-18T16:26:47.392Z,53.73
2022-10-18T16:29:21.787Z,53.67
2022-10-18T16:31:50.786Z,54.00
2022-10-18T16:34:18.389Z,54.35
2022-10-18T16:36:45.671Z,53.79
2022-10-18T16:39:16.921Z,54.12
2022-10-18T16:41:44.376Z,54.34
2022-10-18T16:44:11.651Z,54.84
2022-10-18T16:46:39.192Z,54.44
2022-10-18T16:49:06.924Z,54.66
2022-10-18T16:51:33.839Z,54.48
2022-10-18T16:54:00.735Z,55.06
2022-10-18T16:56:30.777Z,54.67
2022-10-18T16:58:58.731Z,54.71
2022-10-18T17:01:26.413Z,54.71
2022-10-18T17:03:53.989Z,55.17
2022-10-18T17:06:27.798Z,55.12
2022-10-18T17:08:55.806Z,55.19
2022-10-18T17:11:26.341Z,55.03
2022-10-18T17:13:53.348Z,55.00
2022-10-18T17:19:06.250Z,55.53
2022-10-18T17:21:34.044Z,55.39
2022-10-18T17:24:05.983Z,55.57
2022-10-18T17:26:34.318Z,55.98
2022-10-18T17:29:05.656Z,55.58
2022-10-18T17:31:33.017Z,55.77
2022-10-18T17:34:01.734Z,55.42
2022-10-18T17:36:31.538Z,56.05
2022-10-18T17:38:58.762Z,56.10
2022-10-18T17:41:25.776Z,55.54
2022-10-18T17:43:52.662Z,55.67
2022-10-18T17:46:20.203Z,55.91
2022-10-18T17:48:47.662Z,56.09
2022-10-18T17:51:17.046Z,55.82
2022-10-18T17:53:44.558Z,55.88
2022-10-18T17:56:12.369Z,56.27
2022-10-18T17:58:39.270Z,56.38
2022-10-18T18:01:20.108Z,56.39
2022-10-18T18:03:47.892Z,56.15
2022-10-18T18:06:34.013Z,56.14
2022-10-18T18:09:16.020Z,56.38
2022-10-18T18:11:47.255Z,56.04
2022-10-18T18:14:15.949Z,56.39
2022-10-18T18:16:46.069Z,56.72
2022-10-18T18:19:14.287Z,56.25
2022-10-18T18:21:42.527Z,56.42
2022-10-18T18:24:10.786Z,56.21
2022-10-18T18:26:39.202Z,56.62
2022-10-18T18:29:06.254Z,56.46
2022-10-18T18:31:38.764Z,56.45
2022-10-18T18:34:09.609Z,56.29
2022-10-18T18:36:36.828Z,56.44
2022-10-18T18:39:05.617Z,56.39
2022-10-18T18:41:33.033Z,56.56
2022-10-18T18:44:03.246Z,56.57
2022-10-18T18:46:36.589Z,56.45
2022-10-18T18:49:04.855Z,56.86
2022-10-18T18:51:33.144Z,56.61
2022-10-18T18:54:00.376Z,56.51
2022-10-18T18:56:28.933Z,56.84
2022-10-18T18:58:56.844Z,56.85
2022-10-18T19:01:27.780Z,56.44
2022-10-18T19:03:57.143Z,56.69
2022-10-18T19:06:28.165Z,56.72
2022-10-18T19:09:01.406Z,56.89
2022-10-18T19:11:34.588Z,56.77
2022-10-18T19:14:02.831Z,56.12
2022-10-18T19:16:36.009Z,56.56
2022-10-18T19:19:10.739Z,56.74
2022-10-18T19:21:41.039Z,56.62
2022-10-18T19:24:08.300Z,56.69
2022-10-18T19:26:45.168Z,56.32
2022-10-18T19:29:24.055Z,56.61
2022-10-18T19:31:54.179Z,56.52
2022-10-18T19:34:23.071Z,56.03
2022-10-18T19:36:50.731Z,56.19
2022-10-18T19:39:30.146Z,55.90
2022-10-18T19:42:00.199Z,55.99
2022-10-18T19:44:30.922Z,56.18
2022-10-18T19:46:57.965Z,56.32
2022-10-18T19:49:25.099Z,56.41
2022-10-18T19:51:52.251Z,56.19
2022-10-18T19:54:19.143Z,56.32
2022-10-18T19:56:46.305Z,56.56
2022-10-18T19:59:15.437Z,56.27
2022-10-18T20:01:43.099Z,56.12
2022-10-18T20:04:11.079Z,55.71
2022-10-18T20:06:38.978Z,56.16
2022-10-18T20:09:08.458Z,56.12
2022-10-18T20:11:36.256Z,55.91
2022-10-18T20:14:05.346Z,55.80
2022-10-18T20:16:33.609Z,55.78
2022-10-18T20:19:03.337Z,55.55
2022-10-18T20:21:35.403Z,55.43
2022-10-18T20:24:06.000Z,55.68
2022-10-18T20:26:33.643Z,55.24
2022-10-18T20:29:00.571Z,55.82
2022-10-18T20:31:35.558Z,55.62
2022-10-18T20:34:05.870Z,55.58
2022-10-18T20:36:34.394Z,55.13
2022-10-18T20:39:01.607Z,55.07
2022-10-18T20:41:32.222Z,55.07
2022-10-18T20:44:05.443Z,54.64
2022-10-18T20:46:35.536Z,54.92
2022-10-18T20:49:03.974Z,54.33
2022-10-18T20:51:33.424Z,54.81
2022-10-18T20:56:34.349Z,54.63
2022-10-18T20:59:01.962Z,54.53
2022-10-18T21:01:34.086Z,54.21
2022-10-18T21:04:04.682Z,53.90
2022-10-18T21:06:36.898Z,54.20
2022-10-18T21:09:11.582Z,53.68
2022-10-18T21:11:41.398Z,54.03
2022-10-18T21:14:13.290Z,53.41
2022-10-18T21:16:41.043Z,53.72
2022-10-18T21:19:17.686Z,53.60
2022-10-18T21:21:47.395Z,53.06
2022-10-18T21:24:14.616Z,53.43
2022-10-18T21:26:41.575Z,53.51
2022-10-18T21:29:09.790Z,53.11
2022-10-18T21:31:40.174Z,53.37
2022-10-18T21:34:13.422Z,52.91
2022-10-18T21:36:41.914Z,53.21
2022-10-18T21:39:15.692Z,53.17
2022-10-18T21:41:43.556Z,53.00
2022-10-18T21:44:11.352Z,52.85
2022-10-18T21:46:39.621Z,52.62
2022-10-18T21:49:07.566Z,53.15
2022-10-18T21:51:35.074Z,52.69
2022-10-18T21:54:02.217Z,53.20
2022-10-18T21:56:35.123Z,53.07
2022-10-18T21:59:02.578Z,53.41
2022-10-18T22:01:35.759Z,53.31
2022-10-18T22:04:06.200Z,53.12
2022-10-18T22:09:08.403Z,53.30
2022-10-18T22:11:46.468Z,53.56
2022-10-18T22:14:13.344Z,53.22
2022-10-18T22:16:40.198Z,53.50
2022-10-18T22:19:07.875Z,53.38
2022-10-18T22:21:35.099Z,53.76
2022-10-18T22:24:07.411Z,53.54
2022-10-18T22:26:37.856Z,53.86
2022-10-18T22:29:08.726Z,53.60
2022-10-18T22:31:39.266Z,53.85
2022-10-18T22:34:11.359Z,53.77
2022-10-18T22:36:38.984Z,53.43
2022-10-18T22:39:07.179Z,54.08
2022-10-18T22:41:35.283Z,53.98
2022-10-18T22:44:03.674Z,53.71
2022-10-18T22:46:32.529Z,53.82
2022-10-18T22:48:59.407Z,54.20
2022-10-18T22:51:26.535Z,53.98
2022-10-18T22:53:53.433Z,54.13
2022-10-18T22:56:21.892Z,53.66
2022-10-18T22:58:49.206Z,53.47
2022-10-18T23:01:22.454Z,53.78
2022-10-18T23:03:57.688Z,53.58
2022-10-18T23:06:34.109Z,53.48
2022-10-18T23:09:05.539Z,53.68
2022-10-18T23:11:34.158Z,53.82
2022-10-18T23:14:03.621Z,53.76
2022-10-18T23:16:31.180Z,53.69
2022-10-18T23:18:58.865Z,53.88
2022-10-18T23:21:28.022Z,53.47
2022-10-18T23:23:56.358Z,53.44
2022-10-18T23:26:26.531Z,53.65
2022-10-18T23:28:54.556Z,53.26
2022-10-18T23:31:23.878Z,53.70
2022-10-18T23:33:54.978Z,53.21
2022-10-18T23:36:23.546Z,53.54
2022-10-18T23:38:50.935Z,53.51
2022-10-18T23:41:18.819Z,53.19
2022-10-18T23:43:46.716Z,52.86
2022-10-18T23:46:15.692Z,52.99
2022-10-18T23:48:42.662Z,52.64
2022-10-18T23:51:10.377Z,52.60
2022-10-18T23:53:37.794Z,52.98
2022-10-18T23:56:12.909Z,52.47
2022-10-18T23:58:40.627Z,53.01
